sensor_id;sensor_type;location;lat;lon;timestamp;temperature;humidity
46139;DHT22;32398;49.112;8.598;2022-11-12T00:01:23;9.40;97.20
46139;DHT22;32398;49.112;8.598;2022-11-12T00:03:50;9.40;97.20
46139;DHT22;32398;49.112;8.598;2022-11-12T00:06:16;9.40;97.20
46139;DHT22;32398;49.112;8.598;2022-11-12T00:08:43;9.40;97.20
46139;DHT22;32398;49.112;8.598;2022-11-12T00:11:09;9.40;97.20
46139;DHT22;32398;49.112;8.598;2022-11-12T00:13:36;9.30;97.50
46139;DHT22;32398;49.112;8.598;2022-11-12T00:16:05;9.30;97.20
46139;DHT22;32398;49.112;8.598;2022-11-12T00:18:31;9.40;97.50
46139;DHT22;32398;49.112;8.598;2022-11-12T00:20:58;9.40;97.20
46139;DHT22;32398;49.112;8.598;2022-11-12T00:23:24;9.30;97.20
46139;DHT22;32398;49.112;8.598;2022-11-12T00:25:56;9.30;97.20
46139;DHT22;32398;49.112;8.598;2022-11-12T00:28:23;9.40;97.30
46139;DHT22;32398;49.112;8.598;2022-11-12T00:30:49;9.40;97.30
46139;DHT22;32398;49.112;8.598;2022-11-12T00:33:17;9.30;97.20
46139;DHT22;32398;49.112;8.598;2022-11-12T00:35:44;9.30;97.20
46139;DHT22;32398;49.112;8.598;2022-11-12T00:38:10;9.30;97.30
46139;DHT22;32398;49.112;8.598;2022-11-12T00:40:37;9.30;97.30
46139;DHT22;32398;49.112;8.598;2022-11-12T00:43:03;9.30;97.30
46139;DHT22;32398;49.112;8.598;2022-11-12T00:45:30;9.30;97.30
46139;DHT22;32398;49.112;8.598;2022-11-12T00:47:56;9.30;97.30
46139;DHT22;32398;49.112;8.598;2022-11-12T00:50:24;9.30;97.30
46139;DHT22;32398;49.112;8.598;2022-11-12T00:52:51;9.20;97.30
46139;DHT22;32398;49.112;8.598;2022-11-12T00:55:18;9.30;97.30
46139;DHT22;32398;49.112;8.598;2022-11-12T00:57:44;9.30;97.30
46139;DHT22;32398;49.112;8.598;2022-11-12T01:00:14;9.30;97.30
46139;DHT22;32398;49.112;8.598;2022-11-12T01:02:40;9.20;97.30
46139;DHT22;32398;49.112;8.598;2022-11-12T01:05:07;9.20;97.30
46139;DHT22;32398;49.112;8.598;2022-11-12T01:07:35;9.20;97.30
46139;DHT22;32398;49.112;8.598;2022-11-12T01:10:02;9.20;97.30
46139;DHT22;32398;49.112;8.598;2022-11-12T01:12:29;9.20;97.20
46139;DHT22;32398;49.112;8.598;2022-11-12T01:14:55;9.20;97.20
46139;DHT22;32398;49.112;8.598;2022-11-12T01:17:22;9.20;97.20
46139;DHT22;32398;49.112;8.598;2022-11-12T01:19:48;9.20;97.20
46139;DHT22;32398;49.112;8.598;2022-11-12T01:22:15;9.20;97.20
46139;DHT22;32398;49.112;8.598;2022-11-12T01:24:43;9.10;97.20
46139;DHT22;32398;49.112;8.598;2022-11-12T01:27:09;9.20;97.30
46139;DHT22;32398;49.112;8.598;2022-11-12T01:29:36;9.20;97.20
46139;DHT22;32398;49.112;8.598;2022-11-12T01:32:03;9.10;97.20
46139;DHT22;32398;49.112;8.598;2022-11-12T01:34:29;9.10;97.20
46139;DHT22;32398;49.112;8.598;2022-11-12T01:36:56;9.10;97.20
46139;DHT22;32398;49.112;8.598;2022-11-12T01:39:22;9.10;97.20
46139;DHT22;32398;49.112;8.598;2022-11-12T01:41:50;9.10;97.20
46139;DHT22;32398;49.112;8.598;2022-11-12T01:44:18;9.10;97.20
46139;DHT22;32398;49.112;8.598;2022-11-12T01:46:49;9.10;97.20
46139;DHT22;32398;49.112;8.598;2022-11-12T01:49:18;9.10;97.20
46139;DHT22;32398;49.112;8.598;2022-11-12T01:51:47;9.10;97.20
46139;DHT22;32398;49.112;8.598;2022-11-12T01:54:14;9.10;97.20
46139;DHT22;32398;49.112;8.598;2022-11-12T01:56:42;9.00;97.20
46139;DHT22;32398;49.112;8.598;2022-11-12T01:59:14;9.10;97.30
46139;DHT22;32398;49.112;8.598;2022-11-12T02:01:42;9.00;97.20
46139;DHT22;32398;49.112;8.598;2022-11-12T02:04:08;9.00;97.20
46139;DHT22;32398;49.112;8.598;2022-11-12T02:06:35;9.00;97.20
46139;DHT22;32398;49.112;8.598;2022-11-12T02:09:02;9.00;97.20
46139;DHT22;32398;49.112;8.598;2022-11-12T02:11:28;9.00;97.20
46139;DHT22;32398;49.112;8.598;2022-11-12T02:13:55;9.00;97.20
46139;DHT22;32398;49.112;8.598;2022-11-12T02:16:27;9.00;97.20
46139;DHT22;32398;49.112;8.598;2022-11-12T02:18:55;9.00;97.20
46139;DHT22;32398;49.112;8.598;2022-11-12T02:21:24;9.00;97.20
46139;DHT22;32398;49.112;8.598;2022-11-12T02:23:57;9.00;97.30
46139;DHT22;32398;49.112;8.598;2022-11-12T02:26:24;9.00;97.30
46139;DHT22;32398;49.112;8.598;2022-11-12T02:28:50;9.00;97.20
46139;DHT22;32398;49.112;8.598;2022-11-12T02:31:17;9.00;97.30
46139;DHT22;32398;49.112;8.598;2022-11-12T02:33:44;9.00;97.30
46139;DHT22;32398;49.112;8.598;2022-11-12T02:36:10;9.00;97.30
46139;DHT22;32398;49.112;8.598;2022-11-12T02:38:38;9.00;97.30
46139;DHT22;32398;49.112;8.598;2022-11-12T02:41:04;8.90;97.30
46139;DHT22;32398;49.112;8.598;2022-11-12T02:43:31;9.00;97.30
46139;DHT22;32398;49.112;8.598;2022-11-12T02:45:58;9.00;97.30
46139;DHT22;32398;49.112;8.598;2022-11-12T02:48:24;8.90;97.30
46139;DHT22;32398;49.112;8.598;2022-11-12T02:50:51;8.90;97.30
46139;DHT22;32398;49.112;8.598;2022-11-12T02:53:17;8.90;97.30
46139;DHT22;32398;49.112;8.598;2022-11-12T02:55:45;8.90;97.30
46139;DHT22;32398;49.112;8.598;2022-11-12T02:58:12;8.90;97.30
46139;DHT22;32398;49.112;8.598;2022-11-12T03:00:38;8.90;97.30
46139;DHT22;32398;49.112;8.598;2022-11-12T03:03:05;8.90;97.30
46139;DHT22;32398;49.112;8.598;2022-11-12T03:05:32;8.90;97.30
46139;DHT22;32398;49.112;8.598;2022-11-12T03:08:00;8.90;97.30
46139;DHT22;32398;49.112;8.598;2022-11-12T03:10:27;8.90;97.30
46139;DHT22;32398;49.112;8.598;2022-11-12T03:12:56;8.80;97.30
46139;DHT22;32398;49.112;8.598;2022-11-12T03:15:23;8.90;97.30
46139;DHT22;32398;49.112;8.598;2022-11-12T03:17:49;8.90;97.30
46139;DHT22;32398;49.112;8.598;2022-11-12T03:20:16;8.80;97.30
46139;DHT22;32398;49.112;8.598;2022-11-12T03:22:52;8.90;97.30
46139;DHT22;32398;49.112;8.598;2022-11-12T03:25:19;8.90;97.40
46139;DHT22;32398;49.112;8.598;2022-11-12T03:27:46;8.80;97.30
46139;DHT22;32398;49.112;8.598;2022-11-12T03:30:14;8.90;97.40
46139;DHT22;32398;49.112;8.598;2022-11-12T03:32:40;8.90;97.40
46139;DHT22;32398;49.112;8.598;2022-11-12T03:35:07;8.80;97.30
46139;DHT22;32398;49.112;8.598;2022-11-12T03:37:35;8.80;97.40
46139;DHT22;32398;49.112;8.598;2022-11-12T03:40:02;8.80;97.40
46139;DHT22;32398;49.112;8.598;2022-11-12T03:42:29;8.80;97.40
46139;DHT22;32398;49.112;8.598;2022-11-12T03:44:55;8.80;97.40
46139;DHT22;32398;49.112;8.598;2022-11-12T03:47:23;8.80;97.40
46139;DHT22;32398;49.112;8.598;2022-11-12T03:49:50;8.80;97.40
46139;DHT22;32398;49.112;8.598;2022-11-12T03:52:16;8.80;97.40
46139;DHT22;32398;49.112;8.598;2022-11-12T03:54:43;8.80;97.40
46139;DHT22;32398;49.112;8.598;2022-11-12T03:57:09;8.80;97.40
46139;DHT22;32398;49.112;8.598;2022-11-12T03:59:36;8.80;97.40
46139;DHT22;32398;49.112;8.598;2022-11-12T04:02:02;8.80;97.40
46139;DHT22;32398;49.112;8.598;2022-11-12T04:04:30;8.80;97.30
46139;DHT22;32398;49.112;8.598;2022-11-12T04:07:11;8.80;97.30
46139;DHT22;32398;49.112;8.598;2022-11-12T04:09:55;8.80;97.30
46139;DHT22;32398;49.112;8.598;2022-11-12T04:12:21;8.70;97.30
46139;DHT22;32398;49.112;8.598;2022-11-12T04:15:06;8.70;97.30
46139;DHT22;32398;49.112;8.598;2022-11-12T04:17:33;8.80;97.30
46139;DHT22;32398;49.112;8.598;2022-11-12T04:20:18;8.70;97.30
46139;DHT22;32398;49.112;8.598;2022-11-12T04:23:02;8.80;97.40
46139;DHT22;32398;49.112;8.598;2022-11-12T04:25:29;8.70;97.30
46139;DHT22;32398;49.112;8.598;2022-11-12T04:28:13;8.70;97.30
46139;DHT22;32398;49.112;8.598;2022-11-12T04:30:40;8.70;97.30
46139;DHT22;32398;49.112;8.598;2022-11-12T04:33:05;8.70;97.40
46139;DHT22;32398;49.112;8.598;2022-11-12T04:35:33;8.70;97.40
46139;DHT22;32398;49.112;8.598;2022-11-12T04:38:00;8.70;97.30
46139;DHT22;32398;49.112;8.598;2022-11-12T04:40:26;8.70;97.30
46139;DHT22;32398;49.112;8.598;2022-11-12T04:43:11;8.70;97.30
46139;DHT22;32398;49.112;8.598;2022-11-12T04:45:55;8.70;97.30
46139;DHT22;32398;49.112;8.598;2022-11-12T04:48:23;8.70;97.30
46139;DHT22;32398;49.112;8.598;2022-11-12T04:50:52;8.70;97.30
46139;DHT22;32398;49.112;8.598;2022-11-12T04:53:19;8.60;97.30
46139;DHT22;32398;49.112;8.598;2022-11-12T04:55:48;8.70;97.30
46139;DHT22;32398;49.112;8.598;2022-11-12T04:58:14;8.60;97.30
46139;DHT22;32398;49.112;8.598;2022-11-12T05:00:41;8.60;97.30
46139;DHT22;32398;49.112;8.598;2022-11-12T05:03:08;8.60;97.30
46139;DHT22;32398;49.112;8.598;2022-11-12T05:05:34;8.60;97.30
46139;DHT22;32398;49.112;8.598;2022-11-12T05:08:02;8.60;97.30
46139;DHT22;32398;49.112;8.598;2022-11-12T05:10:29;8.60;97.30
46139;DHT22;32398;49.112;8.598;2022-11-12T05:12:56;8.60;97.40
46139;DHT22;32398;49.112;8.598;2022-11-12T05:15:22;8.60;97.40
46139;DHT22;32398;49.112;8.598;2022-11-12T05:17:49;8.60;97.40
46139;DHT22;32398;49.112;8.598;2022-11-12T05:20:16;8.60;97.30
46139;DHT22;32398;49.112;8.598;2022-11-12T05:22:42;8.60;97.40
46139;DHT22;32398;49.112;8.598;2022-11-12T05:25:10;8.60;97.70
46139;DHT22;32398;49.112;8.598;2022-11-12T05:27:37;8.60;97.40
46139;DHT22;32398;49.112;8.598;2022-11-12T05:30:04;8.60;97.30
46139;DHT22;32398;49.112;8.598;2022-11-12T05:32:31;8.50;97.40
46139;DHT22;32398;49.112;8.598;2022-11-12T05:34:57;8.50;97.30
46139;DHT22;32398;49.112;8.598;2022-11-12T05:37:24;8.60;97.40
46139;DHT22;32398;49.112;8.598;2022-11-12T05:39:50;8.50;97.30
46139;DHT22;32398;49.112;8.598;2022-11-12T05:42:18;8.50;97.40
46139;DHT22;32398;49.112;8.598;2022-11-12T05:44:45;8.60;97.40
46139;DHT22;32398;49.112;8.598;2022-11-12T05:47:11;8.50;97.40
46139;DHT22;32398;49.112;8.598;2022-11-12T05:49:38;8.60;97.40
46139;DHT22;32398;49.112;8.598;2022-11-12T05:52:04;8.50;97.40
46139;DHT22;32398;49.112;8.598;2022-11-12T05:54:31;8.60;97.40
46139;DHT22;32398;49.112;8.598;2022-11-12T05:56:57;8.50;97.40
46139;DHT22;32398;49.112;8.598;2022-11-12T05:59:25;8.50;97.40
46139;DHT22;32398;49.112;8.598;2022-11-12T06:01:52;8.50;97.40
46139;DHT22;32398;49.112;8.598;2022-11-12T06:04:19;8.50;97.40
46139;DHT22;32398;49.112;8.598;2022-11-12T06:06:46;8.50;97.40
46139;DHT22;32398;49.112;8.598;2022-11-12T06:09:12;8.50;97.40
46139;DHT22;32398;49.112;8.598;2022-11-12T06:11:39;8.50;97.40
46139;DHT22;32398;49.112;8.598;2022-11-12T06:14:06;8.50;97.40
46139;DHT22;32398;49.112;8.598;2022-11-12T06:16:33;8.50;97.40
46139;DHT22;32398;49.112;8.598;2022-11-12T06:19:00;8.50;97.40
46139;DHT22;32398;49.112;8.598;2022-11-12T06:21:26;8.50;97.40
46139;DHT22;32398;49.112;8.598;2022-11-12T06:23:54;8.50;97.30
46139;DHT22;32398;49.112;8.598;2022-11-12T06:26:21;8.50;97.40
46139;DHT22;32398;49.112;8.598;2022-11-12T06:28:47;8.40;97.30
46139;DHT22;32398;49.112;8.598;2022-11-12T06:31:15;8.50;97.40
46139;DHT22;32398;49.112;8.598;2022-11-12T06:33:43;8.50;97.40
46139;DHT22;32398;49.112;8.598;2022-11-12T06:36:10;8.50;97.40
46139;DHT22;32398;49.112;8.598;2022-11-12T06:38:38;8.40;97.30
46139;DHT22;32398;49.112;8.598;2022-11-12T06:41:05;8.40;97.30
46139;DHT22;32398;49.112;8.598;2022-11-12T06:43:32;8.40;97.30
46139;DHT22;32398;49.112;8.598;2022-11-12T06:45:59;8.40;97.30
46139;DHT22;32398;49.112;8.598;2022-11-12T06:48:27;8.50;97.40
46139;DHT22;32398;49.112;8.598;2022-11-12T06:50:55;8.40;97.30
46139;DHT22;32398;49.112;8.598;2022-11-12T06:53:22;8.40;97.40
46139;DHT22;32398;49.112;8.598;2022-11-12T06:55:49;8.40;97.40
46139;DHT22;32398;49.112;8.598;2022-11-12T06:58:15;8.40;97.40
46139;DHT22;32398;49.112;8.598;2022-11-12T07:00:42;8.40;97.30
46139;DHT22;32398;49.112;8.598;2022-11-12T07:03:09;8.40;97.40
46139;DHT22;32398;49.112;8.598;2022-11-12T07:05:35;8.40;97.30
46139;DHT22;32398;49.112;8.598;2022-11-12T07:08:04;8.40;97.30
46139;DHT22;32398;49.112;8.598;2022-11-12T07:10:31;8.40;97.50
46139;DHT22;32398;49.112;8.598;2022-11-12T07:12:58;8.40;97.30
46139;DHT22;32398;49.112;8.598;2022-11-12T07:15:24;8.40;97.30
46139;DHT22;32398;49.112;8.598;2022-11-12T07:17:51;8.40;97.30
46139;DHT22;32398;49.112;8.598;2022-11-12T07:20:17;8.40;97.20
46139;DHT22;32398;49.112;8.598;2022-11-12T07:22:44;8.30;97.30
46139;DHT22;32398;49.112;8.598;2022-11-12T07:25:12;8.30;97.20
46139;DHT22;32398;49.112;8.598;2022-11-12T07:27:38;8.40;97.60
46139;DHT22;32398;49.112;8.598;2022-11-12T07:30:05;8.40;97.20
46139;DHT22;32398;49.112;8.598;2022-11-12T07:32:32;8.40;97.30
46139;DHT22;32398;49.112;8.598;2022-11-12T07:34:59;8.40;97.30
46139;DHT22;32398;49.112;8.598;2022-11-12T07:37:26;8.30;97.20
46139;DHT22;32398;49.112;8.598;2022-11-12T07:39:52;8.30;97.30
46139;DHT22;32398;49.112;8.598;2022-11-12T07:42:21;8.30;97.30
46139;DHT22;32398;49.112;8.598;2022-11-12T07:44:47;8.30;97.20
46139;DHT22;32398;49.112;8.598;2022-11-12T07:47:14;8.30;97.20
46139;DHT22;32398;49.112;8.598;2022-11-12T07:49:40;8.30;97.20
46139;DHT22;32398;49.112;8.598;2022-11-12T07:52:07;8.30;97.20
46139;DHT22;32398;49.112;8.598;2022-11-12T07:54:33;8.30;97.20
46139;DHT22;32398;49.112;8.598;2022-11-12T07:57:00;8.30;97.20
46139;DHT22;32398;49.112;8.598;2022-11-12T07:59:28;8.30;97.20
46139;DHT22;32398;49.112;8.598;2022-11-12T08:01:54;8.30;97.20
46139;DHT22;32398;49.112;8.598;2022-11-12T08:04:21;8.30;97.20
46139;DHT22;32398;49.112;8.598;2022-11-12T08:06:47;8.30;97.20
46139;DHT22;32398;49.112;8.598;2022-11-12T08:09:14;8.20;97.20
46139;DHT22;32398;49.112;8.598;2022-11-12T08:11:41;8.30;97.20
46139;DHT22;32398;49.112;8.598;2022-11-12T08:14:07;8.30;97.20
46139;DHT22;32398;49.112;8.598;2022-11-12T08:16:35;8.30;97.30
46139;DHT22;32398;49.112;8.598;2022-11-12T08:19:02;8.30;97.20
46139;DHT22;32398;49.112;8.598;2022-11-12T08:21:28;8.20;97.20
46139;DHT22;32398;49.112;8.598;2022-11-12T08:23:55;8.30;97.50
46139;DHT22;32398;49.112;8.598;2022-11-12T08:26:21;8.20;97.20
46139;DHT22;32398;49.112;8.598;2022-11-12T08:28:48;8.20;97.20
46139;DHT22;32398;49.112;8.598;2022-11-12T08:31:15;8.20;97.20
46139;DHT22;32398;49.112;8.598;2022-11-12T08:33:43;8.30;97.20
46139;DHT22;32398;49.112;8.598;2022-11-12T08:36:11;8.30;97.20
46139;DHT22;32398;49.112;8.598;2022-11-12T08:38:38;8.20;97.10
46139;DHT22;32398;49.112;8.598;2022-11-12T08:41:05;8.20;97.10
46139;DHT22;32398;49.112;8.598;2022-11-12T08:43:32;8.20;97.10
46139;DHT22;32398;49.112;8.598;2022-11-12T08:45:58;8.30;97.10
46139;DHT22;32398;49.112;8.598;2022-11-12T08:48:26;8.20;97.10
46139;DHT22;32398;49.112;8.598;2022-11-12T08:50:54;8.20;97.00
46139;DHT22;32398;49.112;8.598;2022-11-12T08:53:21;8.30;97.10
46139;DHT22;32398;49.112;8.598;2022-11-12T08:55:48;8.30;97.00
46139;DHT22;32398;49.112;8.598;2022-11-12T08:58:17;8.30;97.00
46139;DHT22;32398;49.112;8.598;2022-11-12T09:00:44;8.30;96.90
46139;DHT22;32398;49.112;8.598;2022-11-12T09:03:11;8.30;96.90
46139;DHT22;32398;49.112;8.598;2022-11-12T09:05:38;8.30;97.00
46139;DHT22;32398;49.112;8.598;2022-11-12T09:08:07;8.30;96.90
46139;DHT22;32398;49.112;8.598;2022-11-12T09:10:34;8.30;96.90
46139;DHT22;32398;49.112;8.598;2022-11-12T09:13:01;8.30;96.90
46139;DHT22;32398;49.112;8.598;2022-11-12T09:15:28;8.30;96.90
46139;DHT22;32398;49.112;8.598;2022-11-12T09:17:55;8.30;96.90
46139;DHT22;32398;49.112;8.598;2022-11-12T09:20:22;8.30;96.90
46139;DHT22;32398;49.112;8.598;2022-11-12T09:22:48;8.30;96.90
46139;DHT22;32398;49.112;8.598;2022-11-12T09:25:16;8.40;96.90
46139;DHT22;32398;49.112;8.598;2022-11-12T09:27:43;8.30;96.80
46139;DHT22;32398;49.112;8.598;2022-11-12T09:30:10;8.30;96.80
46139;DHT22;32398;49.112;8.598;2022-11-12T09:32:37;8.40;96.80
46139;DHT22;32398;49.112;8.598;2022-11-12T09:35:04;8.40;96.90
46139;DHT22;32398;49.112;8.598;2022-11-12T09:37:31;8.40;96.90
46139;DHT22;32398;49.112;8.598;2022-11-12T09:39:58;8.30;96.80
46139;DHT22;32398;49.112;8.598;2022-11-12T09:42:25;8.40;96.80
46139;DHT22;32398;49.112;8.598;2022-11-12T09:44:54;8.40;96.80
46139;DHT22;32398;49.112;8.598;2022-11-12T09:47:22;8.40;96.80
46139;DHT22;32398;49.112;8.598;2022-11-12T09:49:54;8.40;96.80
46139;DHT22;32398;49.112;8.598;2022-11-12T09:52:24;8.40;96.80
46139;DHT22;32398;49.112;8.598;2022-11-12T09:54:53;8.40;96.80
46139;DHT22;32398;49.112;8.598;2022-11-12T09:57:27;8.40;96.80
46139;DHT22;32398;49.112;8.598;2022-11-12T09:59:53;8.50;96.70
46139;DHT22;32398;49.112;8.598;2022-11-12T10:02:23;8.50;96.70
46139;DHT22;32398;49.112;8.598;2022-11-12T10:04:54;8.50;96.70
46139;DHT22;32398;49.112;8.598;2022-11-12T10:07:28;8.50;96.70
46139;DHT22;32398;49.112;8.598;2022-11-12T10:09:59;8.50;96.70
46139;DHT22;32398;49.112;8.598;2022-11-12T10:12:29;8.50;96.70
46139;DHT22;32398;49.112;8.598;2022-11-12T10:15:09;8.50;96.70
46139;DHT22;32398;49.112;8.598;2022-11-12T10:17:56;8.50;96.60
46139;DHT22;32398;49.112;8.598;2022-11-12T10:20:27;8.50;96.60
46139;DHT22;32398;49.112;8.598;2022-11-12T10:22:57;8.50;96.60
46139;DHT22;32398;49.112;8.598;2022-11-12T10:25:28;8.50;96.60
46139;DHT22;32398;49.112;8.598;2022-11-12T10:27:56;8.50;96.60
46139;DHT22;32398;49.112;8.598;2022-11-12T10:30:23;8.50;96.70
46139;DHT22;32398;49.112;8.598;2022-11-12T10:32:50;8.60;96.70
46139;DHT22;32398;49.112;8.598;2022-11-12T10:35:18;8.50;96.70
46139;DHT22;32398;49.112;8.598;2022-11-12T10:37:45;8.50;96.70
46139;DHT22;32398;49.112;8.598;2022-11-12T10:40:24;8.60;96.70
46139;DHT22;32398;49.112;8.598;2022-11-12T10:42:56;8.60;96.70
46139;DHT22;32398;49.112;8.598;2022-11-12T10:45:23;8.50;96.70
46139;DHT22;32398;49.112;8.598;2022-11-12T10:47:50;8.50;96.70
46139;DHT22;32398;49.112;8.598;2022-11-12T10:50:17;8.50;96.70
46139;DHT22;32398;49.112;8.598;2022-11-12T10:52:51;8.60;96.70
46139;DHT22;32398;49.112;8.598;2022-11-12T10:55:19;8.60;96.70
46139;DHT22;32398;49.112;8.598;2022-11-12T10:58:00;8.60;96.70
46139;DHT22;32398;49.112;8.598;2022-11-12T11:00:26;8.60;96.70
46139;DHT22;32398;49.112;8.598;2022-11-12T11:02:53;8.60;96.70
46139;DHT22;32398;49.112;8.598;2022-11-12T11:05:26;8.60;96.70
46139;DHT22;32398;49.112;8.598;2022-11-12T11:07:54;8.60;96.70
46139;DHT22;32398;49.112;8.598;2022-11-12T11:10:22;8.60;96.70
46139;DHT22;32398;49.112;8.598;2022-11-12T11:12:48;8.60;96.70
46139;DHT22;32398;49.112;8.598;2022-11-12T11:15:19;8.60;96.70
46139;DHT22;32398;49.112;8.598;2022-11-12T11:17:45;8.60;96.70
46139;DHT22;32398;49.112;8.598;2022-11-12T11:20:14;8.60;96.70
46139;DHT22;32398;49.112;8.598;2022-11-12T11:22:42;8.60;96.70
46139;DHT22;32398;49.112;8.598;2022-11-12T11:25:13;8.60;96.70
46139;DHT22;32398;49.112;8.598;2022-11-12T11:27:45;8.70;96.70
46139;DHT22;32398;49.112;8.598;2022-11-12T11:30:13;8.70;96.70
46139;DHT22;32398;49.112;8.598;2022-11-12T11:32:54;8.60;96.70
46139;DHT22;32398;49.112;8.598;2022-11-12T11:35:24;8.70;96.70
46139;DHT22;32398;49.112;8.598;2022-11-12T11:37:56;8.60;96.70
46139;DHT22;32398;49.112;8.598;2022-11-12T11:40:28;8.70;96.70
46139;DHT22;32398;49.112;8.598;2022-11-12T11:43:03;8.70;96.70
46139;DHT22;32398;49.112;8.598;2022-11-12T11:45:32;8.70;96.70
46139;DHT22;32398;49.112;8.598;2022-11-12T11:48:03;8.70;96.70
46139;DHT22;32398;49.112;8.598;2022-11-12T11:50:31;8.70;96.70
46139;DHT22;32398;49.112;8.598;2022-11-12T11:53:06;8.80;96.70
46139;DHT22;32398;49.112;8.598;2022-11-12T11:55:35;8.80;96.60
46139;DHT22;32398;49.112;8.598;2022-11-12T11:58:05;8.70;96.60
46139;DHT22;32398;49.112;8.598;2022-11-12T12:00:34;8.80;96.60
46139;DHT22;32398;49.112;8.598;2022-11-12T12:03:09;8.80;96.70
46139;DHT22;32398;49.112;8.598;2022-11-12T12:05:39;8.80;96.70
46139;DHT22;32398;49.112;8.598;2022-11-12T12:08:07;8.80;96.70
46139;DHT22;32398;49.112;8.598;2022-11-12T12:10:41;8.80;96.70
46139;DHT22;32398;49.112;8.598;2022-11-12T12:13:11;8.80;96.70
46139;DHT22;32398;49.112;8.598;2022-11-12T12:15:43;8.80;96.70
46139;DHT22;32398;49.112;8.598;2022-11-12T12:18:17;8.80;96.60
46139;DHT22;32398;49.112;8.598;2022-11-12T12:20:46;8.80;96.60
46139;DHT22;32398;49.112;8.598;2022-11-12T12:23:16;8.80;96.60
46139;DHT22;32398;49.112;8.598;2022-11-12T12:25:45;8.80;96.60
46139;DHT22;32398;49.112;8.598;2022-11-12T12:28:15;8.80;96.60
46139;DHT22;32398;49.112;8.598;2022-11-12T12:30:43;8.90;96.60
46139;DHT22;32398;49.112;8.598;2022-11-12T12:33:17;8.80;96.60
46139;DHT22;32398;49.112;8.598;2022-11-12T12:35:46;8.90;96.70
46139;DHT22;32398;49.112;8.598;2022-11-12T12:38:17;8.90;96.80
46139;DHT22;32398;49.112;8.598;2022-11-12T12:40:45;8.90;97.00
46139;DHT22;32398;49.112;8.598;2022-11-12T12:43:16;8.90;97.00
46139;DHT22;32398;49.112;8.598;2022-11-12T12:45:43;8.90;96.90
46139;DHT22;32398;49.112;8.598;2022-11-12T12:48:12;8.90;96.90
46139;DHT22;32398;49.112;8.598;2022-11-12T12:50:40;8.90;96.90
46139;DHT22;32398;49.112;8.598;2022-11-12T12:53:15;8.90;96.80
46139;DHT22;32398;49.112;8.598;2022-11-12T12:55:42;8.90;96.70
46139;DHT22;32398;49.112;8.598;2022-11-12T12:58:16;9.00;96.80
46139;DHT22;32398;49.112;8.598;2022-11-12T13:00:47;8.90;96.70
46139;DHT22;32398;49.112;8.598;2022-11-12T13:06:06;9.00;96.60
46139;DHT22;32398;49.112;8.598;2022-11-12T13:08:33;9.00;96.60
46139;DHT22;32398;49.112;8.598;2022-11-12T13:11:01;9.00;96.50
46139;DHT22;32398;49.112;8.598;2022-11-12T13:13:28;9.00;96.50
46139;DHT22;32398;49.112;8.598;2022-11-12T13:15:56;9.00;96.50
46139;DHT22;32398;49.112;8.598;2022-11-12T13:21:10;9.00;96.40
46139;DHT22;32398;49.112;8.598;2022-11-12T13:23:44;9.00;96.50
46139;DHT22;32398;49.112;8.598;2022-11-12T13:32:25;9.10;96.40
46139;DHT22;32398;49.112;8.598;2022-11-12T13:37:40;9.10;96.70
46139;DHT22;32398;49.112;8.598;2022-11-12T13:40:08;9.10;96.30
46139;DHT22;32398;49.112;8.598;2022-11-12T13:42:37;9.10;96.30
46139;DHT22;32398;49.112;8.598;2022-11-12T13:45:16;9.10;96.30
46139;DHT22;32398;49.112;8.598;2022-11-12T13:47:43;9.10;96.30
46139;DHT22;32398;49.112;8.598;2022-11-12T13:50:12;9.10;96.30
46139;DHT22;32398;49.112;8.598;2022-11-12T13:52:41;9.10;96.30
46139;DHT22;32398;49.112;8.598;2022-11-12T13:55:11;9.20;96.40
46139;DHT22;32398;49.112;8.598;2022-11-12T13:57:38;9.20;96.40
46139;DHT22;32398;49.112;8.598;2022-11-12T14:00:09;9.20;96.40
46139;DHT22;32398;49.112;8.598;2022-11-12T14:02:36;9.10;96.40
46139;DHT22;32398;49.112;8.598;2022-11-12T14:05:03;9.20;96.40
46139;DHT22;32398;49.112;8.598;2022-11-12T14:07:34;9.20;96.40
46139;DHT22;32398;49.112;8.598;2022-11-12T14:10:07;9.20;96.40
46139;DHT22;32398;49.112;8.598;2022-11-12T14:12:45;9.20;96.40
46139;DHT22;32398;49.112;8.598;2022-11-12T14:15:20;9.20;96.40
46139;DHT22;32398;49.112;8.598;2022-11-12T14:17:52;9.20;96.40
46139;DHT22;32398;49.112;8.598;2022-11-12T14:20:22;9.20;96.30
46139;DHT22;32398;49.112;8.598;2022-11-12T14:22:50;9.20;96.40
46139;DHT22;32398;49.112;8.598;2022-11-12T14:25:19;9.20;96.40
46139;DHT22;32398;49.112;8.598;2022-11-12T14:27:47;9.20;96.40
46139;DHT22;32398;49.112;8.598;2022-11-12T14:30:15;9.20;96.30
46139;DHT22;32398;49.112;8.598;2022-11-12T14:32:42;9.30;96.40
46139;DHT22;32398;49.112;8.598;2022-11-12T14:35:16;9.20;96.30
46139;DHT22;32398;49.112;8.598;2022-11-12T14:37:44;9.20;96.30
46139;DHT22;32398;49.112;8.598;2022-11-12T14:40:14;9.20;96.30
46139;DHT22;32398;49.112;8.598;2022-11-12T14:42:42;9.20;96.30
46139;DHT22;32398;49.112;8.598;2022-11-12T14:45:13;9.20;96.30
46139;DHT22;32398;49.112;8.598;2022-11-12T14:47:40;9.20;96.30
46139;DHT22;32398;49.112;8.598;2022-11-12T14:50:07;9.30;96.30
46139;DHT22;32398;49.112;8.598;2022-11-12T14:52:39;9.30;96.40
46139;DHT22;32398;49.112;8.598;2022-11-12T14:55:07;9.30;96.40
46139;DHT22;32398;49.112;8.598;2022-11-12T14:57:36;9.30;96.40
46139;DHT22;32398;49.112;8.598;2022-11-12T15:00:16;9.30;96.40
46139;DHT22;32398;49.112;8.598;2022-11-12T15:02:44;9.20;96.40
46139;DHT22;32398;49.112;8.598;2022-11-12T15:05:11;9.30;96.40
46139;DHT22;32398;49.112;8.598;2022-11-12T15:07:49;9.30;96.40
46139;DHT22;32398;49.112;8.598;2022-11-12T15:10:32;9.30;96.40
46139;DHT22;32398;49.112;8.598;2022-11-12T15:13:00;9.30;96.40
46139;DHT22;32398;49.112;8.598;2022-11-12T15:15:28;9.30;96.40
46139;DHT22;32398;49.112;8.598;2022-11-12T15:17:56;9.30;96.50
46139;DHT22;32398;49.112;8.598;2022-11-12T15:20:23;9.30;96.50
46139;DHT22;32398;49.112;8.598;2022-11-12T15:22:50;9.30;96.50
46139;DHT22;32398;49.112;8.598;2022-11-12T15:25:18;9.30;96.50
46139;DHT22;32398;49.112;8.598;2022-11-12T15:27:46;9.30;96.50
46139;DHT22;32398;49.112;8.598;2022-11-12T15:30:14;9.30;96.50
46139;DHT22;32398;49.112;8.598;2022-11-12T15:32:43;9.30;96.50
46139;DHT22;32398;49.112;8.598;2022-11-12T15:35:20;9.30;96.50
46139;DHT22;32398;49.112;8.598;2022-11-12T15:37:46;9.30;96.50
46139;DHT22;32398;49.112;8.598;2022-11-12T15:40:14;9.30;96.50
46139;DHT22;32398;49.112;8.598;2022-11-12T15:42:42;9.30;96.50
46139;DHT22;32398;49.112;8.598;2022-11-12T15:45:14;9.30;96.50
46139;DHT22;32398;49.112;8.598;2022-11-12T15:47:42;9.30;96.80
46139;DHT22;32398;49.112;8.598;2022-11-12T15:50:13;9.30;96.50
46139;DHT22;32398;49.112;8.598;2022-11-12T15:52:40;9.30;96.50
46139;DHT22;32398;49.112;8.598;2022-11-12T15:55:07;9.30;96.50
46139;DHT22;32398;49.112;8.598;2022-11-12T15:57:37;9.30;96.60
46139;DHT22;32398;49.112;8.598;2022-11-12T16:00:05;9.30;96.60
46139;DHT22;32398;49.112;8.598;2022-11-12T16:02:32;9.30;96.60
46139;DHT22;32398;49.112;8.598;2022-11-12T16:05:00;9.30;96.60
46139;DHT22;32398;49.112;8.598;2022-11-12T16:07:27;9.30;96.60